Time;durP1;ratioP1;P1;durP2;ratioP2;P2;SDS_P1;SDS_P2;PMS_P1;PMS_P2;Temp;Humidity;BMP_temperature;BMP_pressure;BME280_temperature;BME280_humidity;BME280_pressure;Samples;Min_cycle;Max_cycle;Signal;HPM_P1;HPM_P2
2022/03/05 00:03:26;;;;;;;12.23;5.82;;;7.70;89.40;;;;;;10486192;28;20043;-65
2022/03/05 00:08:26;;;;;;;10.32;4.97;;;7.30;89.10;;;;;;10477826;28;20027;-67
2022/03/05 00:13:27;;;;;;;12.35;5.88;;;7.30;89.10;;;;;;10485712;28;20070;-69
2022/03/05 00:18:28;;;;;;;10.98;5.45;;;7.20;89.00;;;;;;10475637;28;20025;-70
2022/03/05 00:23:28;;;;;;;10.52;4.95;;;7.20;89.00;;;;;;10478181;28;20115;-67
2022/03/05 00:28:29;;;;;;;13.63;5.35;;;7.20;89.00;;;;;;10484859;28;20028;-70
2022/03/05 00:33:30;;;;;;;9.65;4.95;;;7.20;89.00;;;;;;10478422;28;20043;-68
2022/03/05 00:38:30;;;;;;;10.85;5.88;;;7.10;88.90;;;;;;10485188;28;20131;-68
2022/03/05 00:43:31;;;;;;;11.82;5.68;;;7.10;88.90;;;;;;10466810;28;20553;-67
2022/03/05 00:48:32;;;;;;;14.27;5.68;;;7.10;88.80;;;;;;10484838;28;20042;-65
2022/03/05 00:53:33;;;;;;;10.48;5.10;;;7.10;88.80;;;;;;10480354;28;20037;-67
2022/03/05 00:58:33;;;;;;;9.13;4.78;;;7.10;88.80;;;;;;10479240;28;20391;-68
2022/03/05 01:03:34;;;;;;;11.50;5.07;;;7.10;88.70;;;;;;10484652;28;20036;-67
2022/03/05 01:08:35;;;;;;;11.98;5.25;;;7.00;88.60;;;;;;10476064;28;20114;-69
2022/03/05 01:13:36;;;;;;;9.55;4.55;;;7.00;88.70;;;;;;10484934;28;20028;-67
2022/03/05 01:18:37;;;;;;;9.82;4.93;;;7.00;88.70;;;;;;10479453;28;20075;-69
2022/03/05 01:23:38;;;;;;;12.98;6.15;;;7.00;88.60;;;;;;10474612;28;20033;-67
2022/03/05 01:28:38;;;;;;;13.55;5.43;;;7.00;88.50;;;;;;10483083;28;20024;-68
2022/03/05 01:33:39;;;;;;;9.98;4.82;;;6.90;88.50;;;;;;10469552;28;20033;-63
2022/03/05 01:38:40;;;;;;;11.52;5.38;;;6.90;88.50;;;;;;10484453;28;20044;-65
2022/03/05 01:43:41;;;;;;;10.60;5.18;;;6.90;88.50;;;;;;10477568;28;20261;-69
2022/03/05 01:48:41;;;;;;;11.15;5.68;;;6.90;88.40;;;;;;10490908;28;20039;-67
2022/03/05 01:53:42;;;;;;;12.15;4.90;;;6.80;88.30;;;;;;10478009;28;20032;-69
2022/03/05 01:58:44;;;;;;;11.50;5.35;;;6.80;88.30;;;;;;10483200;28;20035;-66
2022/03/05 02:03:45;;;;;;;9.82;5.05;;;6.80;88.20;;;;;;10486578;28;20025;-68
2022/03/05 02:08:46;;;;;;;10.02;4.70;;;6.80;88.20;;;;;;10485561;28;20391;-63
2022/03/05 02:13:47;;;;;;;9.75;4.88;;;6.80;88.20;;;;;;10491969;28;20481;-64
2022/03/05 02:18:52;;;;;;;11.85;4.95;;;6.70;88.20;;;;;;10477933;28;20025;-64
2022/03/05 02:23:54;;;;;;;10.65;4.88;;;6.70;88.10;;;;;;10476992;28;20120;-66
2022/03/05 02:28:55;;;;;;;10.10;4.75;;;6.70;88.20;;;;;;10488682;28;20036;-66
2022/03/05 02:33:56;;;;;;;11.30;5.30;;;6.70;88.20;;;;;;10485469;28;20044;-65
2022/03/05 02:38:56;;;;;;;9.13;4.57;;;6.70;88.10;;;;;;10490442;28;20024;-65
2022/03/05 02:43:59;;;;;;;10.65;5.07;;;6.60;88.10;;;;;;10495992;28;20126;-64
2022/03/05 02:49:01;;;;;;;12.75;5.10;;;6.60;88.10;;;;;;10486699;28;20033;-67
2022/03/05 02:54:01;;;;;;;11.00;5.10;;;6.60;88.00;;;;;;10485369;28;20036;-65
2022/03/05 02:59:02;;;;;;;10.52;4.78;;;6.60;88.00;;;;;;10477823;28;20541;-66
2022/03/05 03:04:03;;;;;;;9.50;4.40;;;6.90;88.10;;;;;;10487029;28;20025;-68
2022/03/05 03:09:04;;;;;;;10.85;4.63;;;6.50;87.90;;;;;;10481276;28;20017;-66
2022/03/05 03:14:05;;;;;;;9.80;4.68;;;6.50;87.80;;;;;;10488238;28;20498;-63
2022/03/05 03:19:05;;;;;;;8.52;4.50;;;6.50;87.90;;;;;;10483130;28;20021;-67
2022/03/05 03:24:06;;;;;;;10.13;4.75;;;6.50;87.80;;;;;;10471943;28;20028;-69
2022/03/05 03:29:07;;;;;;;10.05;4.40;;;6.40;87.80;;;;;;10483453;28;20036;-67
2022/03/05 03:34:07;;;;;;;10.18;4.72;;;6.50;87.70;;;;;;10467811;28;20106;-65
2022/03/05 03:39:08;;;;;;;10.10;4.57;;;6.40;87.70;;;;;;10482470;28;20025;-69
2022/03/05 03:44:09;;;;;;;10.95;4.50;;;6.40;87.60;;;;;;10473943;28;20120;-64
2022/03/05 03:49:10;;;;;;;10.85;4.05;;;6.50;87.70;;;;;;10481324;28;20090;-67
2022/03/05 03:54:12;;;;;;;9.00;4.22;;;6.30;87.60;;;;;;10473766;28;20149;-65
2022/03/05 03:59:13;;;;;;;10.07;4.43;;;6.30;88.10;;;;;;10476118;28;20051;-68
2022/03/05 04:04:13;;;;;;;10.23;4.35;;;6.30;87.60;;;;;;10486443;28;20119;-68
2022/03/05 04:09:14;;;;;;;10.93;4.47;;;6.30;87.60;;;;;;10485012;28;20386;-68
2022/03/05 04:14:15;;;;;;;9.43;4.30;;;6.30;87.50;;;;;;10486335;28;20059;-63
2022/03/05 04:19:15;;;;;;;12.35;4.95;;;6.20;87.50;;;;;;10474265;28;20012;-65
2022/03/05 04:24:16;;;;;;;9.52;4.60;;;6.30;87.60;;;;;;10475271;28;20091;-69
2022/03/05 04:29:17;;;;;;;11.30;4.22;;;6.20;87.50;;;;;;10469501;28;20031;-65
2022/03/05 04:34:18;;;;;;;9.90;4.35;;;6.20;87.50;;;;;;10472814;28;20126;-65
2022/03/05 04:39:19;;;;;;;8.77;4.07;;;6.20;87.40;;;;;;10487310;28;20109;-65
2022/03/05 04:44:20;;;;;;;10.23;4.30;;;6.20;87.50;;;;;;10487008;28;20048;-67
2022/03/05 04:49:21;;;;;;;10.15;4.28;;;6.10;87.40;;;;;;10482076;28;20100;-66
2022/03/05 04:54:24;;;;;;;9.75;3.95;;;6.10;87.40;;;;;;10484720;28;20040;-66
2022/03/05 04:59:24;;;;;;;8.77;4.15;;;6.10;87.30;;;;;;10467145;28;20028;-66
2022/03/05 05:04:26;;;;;;;9.52;4.68;;;6.10;87.30;;;;;;10486108;28;20036;-66
2022/03/05 05:09:26;;;;;;;10.95;4.43;;;6.20;87.30;;;;;;10478512;28;20024;-67
2022/03/05 05:14:27;;;;;;;10.40;4.05;;;6.10;87.20;;;;;;10484030;28;20398;-68
2022/03/05 05:19:28;;;;;;;11.55;4.40;;;6.20;87.30;;;;;;10473119;28;20036;-68
2022/03/05 05:24:33;;;;;;;11.25;4.53;;;6.00;87.70;;;;;;10494532;28;20048;-69
2022/03/05 05:29:34;;;;;;;12.57;4.18;;;6.00;87.10;;;;;;10496035;28;20028;-67
2022/03/05 05:34:35;;;;;;;10.20;4.45;;;6.00;87.10;;;;;;10481763;28;20503;-63
2022/03/05 05:39:36;;;;;;;9.30;4.07;;;6.00;87.00;;;;;;10487105;28;20028;-68
2022/03/05 05:44:36;;;;;;;8.73;4.13;;;6.00;87.00;;;;;;10492682;28;20028;-67
2022/03/05 05:49:37;;;;;;;10.48;4.35;;;5.90;86.90;;;;;;10477357;28;20688;-69
2022/03/05 05:54:38;;;;;;;10.70;4.30;;;6.10;87.00;;;;;;10477573;28;20406;-68
2022/03/05 05:59:38;;;;;;;10.07;4.60;;;6.10;87.10;;;;;;10463911;28;21169;-65
2022/03/05 06:04:39;;;;;;;10.52;4.25;;;5.90;86.90;;;;;;10482235;28;20070;-67
2022/03/05 06:09:40;;;;;;;11.50;4.25;;;5.90;86.80;;;;;;10486348;28;20467;-66
2022/03/05 06:14:41;;;;;;;11.05;4.80;;;5.90;86.80;;;;;;10473166;28;20367;-66
2022/03/05 06:19:44;;;;;;;12.82;4.65;;;5.90;86.70;;;;;;10474235;28;20032;-68
2022/03/05 06:24:44;;;;;;;10.07;3.83;;;6.20;86.90;;;;;;10478135;28;20044;-65
2022/03/05 06:29:45;;;;;;;11.10;4.30;;;5.80;86.70;;;;;;10483426;28;20504;-64
2022/03/05 06:34:46;;;;;;;14.23;4.95;;;5.90;86.70;;;;;;10477165;28;20067;-66
2022/03/05 06:39:48;;;;;;;11.15;4.20;;;6.00;86.80;;;;;;10485983;28;20616;-66
2022/03/05 06:44:50;;;;;;;11.65;4.68;;;5.80;86.60;;;;;;10489976;28;20040;-65
2022/03/05 06:49:51;;;;;;;10.73;4.90;;;5.80;86.60;;;;;;10482163;28;20122;-65
2022/03/05 06:54:51;;;;;;;11.88;5.15;;;6.10;86.70;;;;;;10482488;28;20443;-65
2022/03/05 06:59:53;;;;;;;12.52;4.82;;;5.80;86.50;;;;;;10482664;28;20032;-64
2022/03/05 07:04:54;;;;;;;11.07;4.90;;;6.10;86.60;;;;;;10488068;28;20036;-65
2022/03/05 07:09:55;;;;;;;13.23;5.40;;;5.80;86.40;;;;;;10480278;28;20033;-65
2022/03/05 07:14:56;;;;;;;11.48;4.53;;;5.80;86.30;;;;;;10488548;28;20119;-69
2022/03/05 07:19:56;;;;;;;11.43;4.35;;;5.80;86.30;;;;;;10475240;28;20342;-65
2022/03/05 07:24:57;;;;;;;15.88;5.47;;;5.80;86.20;;;;;;10475795;28;20073;-64
2022/03/05 07:29:57;;;;;;;12.40;4.63;;;5.80;86.20;;;;;;10487861;28;20017;-68
2022/03/05 07:34:58;;;;;;;12.20;4.75;;;5.80;86.10;;;;;;10464822;28;20057;-66
2022/03/05 07:39:59;;;;;;;9.90;4.32;;;5.80;86.10;;;;;;10487881;28;20044;-65
2022/03/05 07:45:00;;;;;;;12.68;5.53;;;5.80;86.00;;;;;;10487633;28;20032;-63
2022/03/05 07:50:01;;;;;;;11.23;4.55;;;5.80;86.00;;;;;;10472892;28;20032;-67
2022/03/05 07:55:02;;;;;;;12.98;5.05;;;5.90;85.80;;;;;;10484126;28;20098;-70
2022/03/05 08:00:05;;;;;;;11.95;4.20;;;6.00;85.70;;;;;;10472310;28;20450;-69
2022/03/05 08:05:06;;;;;;;9.52;4.25;;;6.20;85.30;;;;;;10478512;28;20040;-72
2022/03/05 08:10:08;;;;;;;11.60;4.43;;;6.30;84.90;;;;;;10480286;28;20032;-69
2022/03/05 08:15:09;;;;;;;9.63;4.15;;;6.40;84.50;;;;;;10480748;28;20068;-70
2022/03/05 08:20:11;;;;;;;9.10;4.28;;;6.50;84.30;;;;;;10478936;28;20025;-70
2022/03/05 08:25:12;;;;;;;11.55;4.43;;;6.60;84.30;;;;;;10469637;28;20268;-71
2022/03/05 08:30:13;;;;;;;11.10;4.32;;;6.70;84.30;;;;;;10452019;28;20338;-67
2022/03/05 08:35:14;;;;;;;10.20;4.50;;;6.90;84.30;;;;;;10434604;28;20037;-65
2022/03/05 08:40:15;;;;;;;10.90;3.65;;;6.80;84.20;;;;;;10452018;28;20021;-65
2022/03/05 08:45:16;;;;;;;11.13;4.40;;;6.90;84.10;;;;;;10454549;28;20029;-67
2022/03/05 08:50:17;;;;;;;12.60;4.93;;;6.90;84.00;;;;;;10453601;28;20426;-69
2022/03/05 08:55:18;;;;;;;11.35;5.13;;;7.00;84.00;;;;;;10458636;28;20071;-69
2022/03/05 09:00:18;;;;;;;10.77;4.25;;;7.00;83.90;;;;;;10454016;28;20025;-68
2022/03/05 09:05:19;;;;;;;10.63;4.43;;;7.20;84.10;;;;;;10455924;28;20107;-68
2022/03/05 09:10:20;;;;;;;9.88;4.10;;;7.10;84.00;;;;;;10438067;28;20024;-71
2022/03/05 09:15:21;;;;;;;10.75;4.47;;;7.20;84.00;;;;;;10460667;28;20032;-67
2022/03/05 09:20:22;;;;;;;9.98;4.30;;;7.20;84.00;;;;;;10463449;28;20016;-69
2022/03/05 09:25:23;;;;;;;11.48;4.13;;;7.20;84.00;;;;;;10470533;28;20107;-68
2022/03/05 09:30:24;;;;;;;11.30;4.60;;;7.30;84.10;;;;;;10470594;28;20108;-67
2022/03/05 09:35:25;;;;;;;11.82;5.50;;;7.30;84.10;;;;;;10472786;28;20045;-66
2022/03/05 09:40:26;;;;;;;14.77;5.55;;;7.30;84.10;;;;;;10475188;28;20320;-70
2022/03/05 09:45:27;;;;;;;10.52;4.63;;;7.40;84.20;;;;;;10480790;28;20024;-69
2022/03/05 09:50:28;;;;;;;9.88;4.25;;;7.40;84.10;;;;;;10455642;28;20517;-65
2022/03/05 09:55:31;;;;;;;12.90;4.82;;;7.50;84.00;;;;;;10453328;28;20052;-64
2022/03/05 10:00:32;;;;;;;13.10;5.22;;;7.60;84.20;;;;;;10447611;28;20017;-70
2022/03/05 10:05:36;;;;;;;14.05;5.53;;;7.60;84.10;;;;;;10471500;28;20017;-68
2022/03/05 10:10:50;;;;;;;10.82;4.72;;;7.70;84.10;;;;;;10467951;28;20506;-61
2022/03/05 10:15:53;;;;;;;13.57;5.22;;;7.70;84.00;;;;;;10457662;28;20527;-62
2022/03/05 10:20:54;;;;;;;17.30;6.55;;;7.80;83.90;;;;;;10477022;28;20108;-65
2022/03/05 10:25:55;;;;;;;24.80;8.60;;;7.80;84.50;;;;;;10483005;28;20037;-67
2022/03/05 10:31:03;;;;;;;22.25;7.95;;;7.50;84.20;;;;;;10488689;28;20497;-61
2022/03/05 10:36:19;;;;;;;24.42;9.13;;;7.10;85.10;;;;;;10463369;28;20052;-60
2022/03/05 10:41:37;;;;;;;24.02;9.00;;;6.20;86.80;;;;;;10467788;28;20032;-63
2022/03/05 10:46:53;;;;;;;24.70;8.77;;;5.50;89.50;;;;;;10486617;28;20019;-65
2022/03/05 10:52:00;;;;;;;22.05;8.07;;;5.10;90.10;;;;;;10480578;28;20542;-65
2022/03/05 10:57:10;;;;;;;21.05;8.10;;;5.40;90.70;;;;;;10488272;28;20036;-66
2022/03/05 11:02:12;;;;;;;20.70;7.80;;;6.30;90.00;;;;;;10482059;28;20039;-62
2022/03/05 11:07:16;;;;;;;17.30;6.70;;;6.50;87.80;;;;;;10480851;28;20039;-64
2022/03/05 11:12:21;;;;;;;19.38;7.60;;;6.90;86.60;;;;;;10484296;28;20506;-64
2022/03/05 11:17:22;;;;;;;19.65;7.05;;;7.30;85.80;;;;;;10484684;28;20032;-66
2022/03/05 11:22:22;;;;;;;17.77;7.40;;;7.50;85.00;;;;;;10481449;28;20560;-63
2022/03/05 11:27:23;;;;;;;16.55;6.75;;;7.70;85.20;;;;;;10465065;28;20060;-66
2022/03/05 11:32:32;;;;;;;17.88;6.38;;;7.90;84.30;;;;;;10452855;28;20032;-66
2022/03/05 11:37:35;;;;;;;19.77;6.78;;;8.00;84.10;;;;;;10454482;28;20128;-64
2022/03/05 11:42:38;;;;;;;21.60;8.27;;;8.20;83.70;;;;;;10457264;28;20041;-65
2022/03/05 11:47:38;;;;;;;17.67;5.68;;;8.20;83.40;;;;;;10482469;28;20107;-66
2022/03/05 11:52:39;;;;;;;17.65;6.57;;;8.30;83.40;;;;;;10470442;28;20107;-67
2022/03/05 11:58:06;;;;;;;17.15;7.00;;;8.40;83.40;;;;;;10481085;28;20498;-68
2022/03/05 12:03:07;;;;;;;18.27;7.30;;;8.50;83.60;;;;;;10474985;28;20143;-67
2022/03/05 12:08:09;;;;;;;17.55;7.35;;;8.60;83.40;;;;;;10481127;28;20049;-66
2022/03/05 12:13:15;;;;;;;19.17;7.47;;;8.70;83.70;;;;;;10480833;28;20051;-64
2022/03/05 12:18:16;;;;;;;14.15;6.00;;;8.70;83.40;;;;;;10480919;28;20021;-66
2022/03/05 12:23:19;;;;;;;17.23;6.53;;;8.80;83.60;;;;;;10468550;28;20063;-67
2022/03/05 12:28:24;;;;;;;17.85;6.75;;;8.80;84.30;;;;;;10484693;28;20032;-63
2022/03/05 12:33:26;;;;;;;16.38;7.18;;;8.80;84.40;;;;;;10474226;28;20093;-65
2022/03/05 12:38:27;;;;;;;16.67;7.32;;;8.90;83.90;;;;;;10470439;28;20115;-65
2022/03/05 12:43:27;;;;;;;15.30;5.47;;;8.90;84.00;;;;;;10466398;28;20033;-62
2022/03/05 12:48:28;;;;;;;19.08;7.32;;;8.90;84.00;;;;;;10484195;28;20028;-62
2022/03/05 12:53:31;;;;;;;16.20;6.80;;;8.90;84.20;;;;;;10464391;28;20058;-66
2022/03/05 12:58:34;;;;;;;21.20;7.72;;;8.90;84.40;;;;;;10477057;28;20033;-71
2022/03/05 13:03:37;;;;;;;23.42;9.15;;;8.80;84.30;;;;;;10457339;28;20112;-65
2022/03/05 13:08:39;;;;;;;27.10;10.10;;;8.60;84.40;;;;;;10453266;28;20035;-65
2022/03/05 13:13:48;;;;;;;28.58;10.68;;;7.90;84.70;;;;;;10466762;28;20063;-66
2022/03/05 13:19:04;;;;;;;26.98;10.13;;;7.50;86.30;;;;;;10452921;28;20024;-66
2022/03/05 13:24:07;;;;;;;27.63;10.65;;;7.90;85.30;;;;;;10466849;28;20418;-62
2022/03/05 13:29:08;;;;;;;31.20;11.65;;;7.70;84.90;;;;;;10479037;28;20032;-65
2022/03/05 13:34:20;;;;;;;27.45;11.18;;;7.60;85.50;;;;;;10477180;28;20550;-70
2022/03/05 13:39:25;;;;;;;27.67;10.73;;;7.60;87.00;;;;;;10469499;28;20127;-66
2022/03/05 13:44:38;;;;;;;31.23;11.75;;;7.80;85.40;;;;;;10479009;28;20051;-66
2022/03/05 13:49:41;;;;;;;32.15;11.93;;;8.00;83.70;;;;;;10486176;28;20035;-62
2022/03/05 13:54:44;;;;;;;33.42;12.23;;;7.80;84.50;;;;;;10477588;28;20486;-63
2022/03/05 13:59:47;;;;;;;30.30;10.88;;;8.00;84.40;;;;;;10481702;28;20024;-61
2022/03/05 14:04:54;;;;;;;28.10;12.25;;;8.20;83.60;;;;;;10482112;28;20025;-60
2022/03/05 14:10:01;;;;;;;31.27;11.23;;;8.20;82.50;;;;;;10467589;28;20033;-69
2022/03/05 14:15:10;;;;;;;26.92;11.30;;;8.20;83.50;;;;;;10481524;28;20582;-67
2022/03/05 14:20:18;;;;;;;23.45;9.75;;;8.40;83.80;;;;;;10492099;28;20033;-67
2022/03/05 14:25:23;;;;;;;26.42;10.88;;;8.70;81.60;;;;;;10476744;28;20025;-66
2022/03/05 14:30:24;;;;;;;29.52;12.13;;;8.90;81.10;;;;;;10475178;28;20038;-68
2022/03/05 14:35:26;;;;;;;28.13;11.48;;;8.90;80.00;;;;;;10489131;28;20107;-68
2022/03/05 14:40:29;;;;;;;26.55;11.13;;;8.60;80.40;;;;;;10489075;28;20056;-68
2022/03/05 14:45:33;;;;;;;28.27;11.13;;;8.40;80.40;;;;;;10488793;28;20017;-69
2022/03/05 14:50:37;;;;;;;28.85;10.45;;;8.30;81.30;;;;;;10485170;28;20045;-60
2022/03/05 14:55:39;;;;;;;29.60;11.45;;;8.40;81.50;;;;;;10461677;28;20275;-66
2022/03/05 15:00:40;;;;;;;28.85;10.98;;;8.40;81.10;;;;;;10460072;28;20044;-66
2022/03/05 15:05:41;;;;;;;28.80;11.20;;;8.40;81.00;;;;;;10470970;28;20495;-66
2022/03/05 15:10:42;;;;;;;26.58;10.98;;;8.40;81.00;;;;;;10470195;28;20025;-71
2022/03/05 15:15:43;;;;;;;28.55;11.75;;;8.40;80.90;;;;;;10482307;28;20041;-61
2022/03/05 15:20:44;;;;;;;29.27;10.98;;;8.50;80.30;;;;;;10472523;28;20129;-70
2022/03/05 15:25:45;;;;;;;23.98;9.93;;;8.30;80.40;;;;;;10473815;28;20120;-69
2022/03/05 15:30:46;;;;;;;28.13;10.52;;;8.40;81.10;;;;;;10448468;28;20104;-67
2022/03/05 15:35:47;;;;;;;25.77;10.95;;;8.30;81.30;;;;;;10465896;28;20084;-63
2022/03/05 15:40:48;;;;;;;25.13;11.10;;;8.10;81.90;;;;;;10457988;28;20210;-65
2022/03/05 15:45:49;;;;;;;26.40;11.52;;;7.90;83.10;;;;;;10453036;28;20381;-60
2022/03/05 15:50:49;;;;;;;27.20;10.55;;;7.70;83.40;;;;;;10450807;28;20021;-65
2022/03/05 15:55:50;;;;;;;26.90;10.93;;;7.50;84.00;;;;;;10455533;28;20078;-65
2022/03/05 16:00:53;;;;;;;26.65;11.30;;;7.30;84.10;;;;;;10450079;28;20465;-63
2022/03/05 16:05:54;;;;;;;25.95;10.07;;;7.50;84.40;;;;;;10453649;28;20032;-64
2022/03/05 16:10:55;;;;;;;24.00;10.02;;;7.20;84.40;;;;;;10456783;28;20037;-65
2022/03/05 16:15:58;;;;;;;24.33;9.63;;;7.10;84.20;;;;;;10451010;28;20047;-63
2022/03/05 16:20:58;;;;;;;26.70;10.02;;;7.00;84.00;;;;;;10462877;28;20539;-65
2022/03/05 16:25:59;;;;;;;26.88;10.20;;;7.00;84.10;;;;;;10452735;28;20074;-62
2022/03/05 16:31:00;;;;;;;23.48;9.65;;;7.00;84.60;;;;;;10458916;28;20021;-69
2022/03/05 16:36:01;;;;;;;28.40;10.30;;;6.90;84.70;;;;;;10457639;28;20127;-66
2022/03/05 16:41:02;;;;;;;24.52;9.55;;;6.90;85.30;;;;;;10452206;28;20025;-65
2022/03/05 16:46:04;;;;;;;23.92;11.02;;;6.90;85.50;;;;;;10454561;28;20047;-65
2022/03/05 16:51:05;;;;;;;23.88;9.27;;;6.80;85.70;;;;;;10460470;28;20020;-63
2022/03/05 16:56:06;;;;;;;22.38;9.85;;;6.70;86.00;;;;;;10475689;28;20032;-63
2022/03/05 17:01:09;;;;;;;21.90;9.80;;;6.70;86.10;;;;;;10474871;28;20025;-63
2022/03/05 17:06:09;;;;;;;28.13;10.13;;;6.60;86.40;;;;;;10467137;28;20045;-64
2022/03/05 17:11:10;;;;;;;24.85;9.57;;;6.60;86.40;;;;;;10470965;28;20435;-62
2022/03/05 17:16:11;;;;;;;23.65;8.85;;;6.50;86.40;;;;;;10489338;28;20120;-62
2022/03/05 17:21:12;;;;;;;23.23;9.05;;;6.50;86.60;;;;;;10481808;28;20096;-61
2022/03/05 17:26:13;;;;;;;24.17;9.73;;;6.40;86.50;;;;;;10496498;28;20029;-62
2022/03/05 17:31:14;;;;;;;21.98;8.77;;;6.40;87.00;;;;;;10490169;28;20808;-64
2022/03/05 17:36:15;;;;;;;24.77;8.85;;;6.30;86.60;;;;;;10480678;28;20064;-62
2022/03/05 17:41:15;;;;;;;24.52;9.85;;;6.10;86.50;;;;;;10495428;28;20028;-65
2022/03/05 17:46:16;;;;;;;24.98;9.65;;;6.00;86.70;;;;;;10498324;28;20535;-62
2022/03/05 17:51:17;;;;;;;21.52;8.82;;;5.90;87.30;;;;;;10490174;28;20108;-64
2022/03/05 17:56:18;;;;;;;20.52;8.82;;;6.10;88.70;;;;;;10497469;28;20139;-63
2022/03/05 18:01:18;;;;;;;21.00;8.73;;;6.50;87.50;;;;;;10483926;28;20506;-66
2022/03/05 18:06:19;;;;;;;24.55;9.75;;;6.80;86.80;;;;;;10474645;28;20040;-61
2022/03/05 18:11:20;;;;;;;21.75;8.63;;;7.10;86.40;;;;;;10479539;28;20025;-63
2022/03/05 18:16:21;;;;;;;20.85;8.48;;;7.40;86.30;;;;;;10481652;28;20572;-62
2022/03/05 18:21:21;;;;;;;21.52;9.27;;;7.40;86.10;;;;;;10475204;28;20039;-64
2022/03/05 18:26:22;;;;;;;18.85;8.20;;;7.50;86.10;;;;;;10487562;28;20033;-64
2022/03/05 18:31:24;;;;;;;19.85;8.25;;;7.60;86.80;;;;;;10488030;28;20040;-65
2022/03/05 18:36:25;;;;;;;20.08;8.35;;;7.70;86.30;;;;;;10480797;28;20049;-62
2022/03/05 18:41:26;;;;;;;20.38;8.02;;;7.80;86.40;;;;;;10471559;28;20032;-62
2022/03/05 18:46:27;;;;;;;20.48;8.57;;;7.80;86.60;;;;;;10484356;28;20074;-64
2022/03/05 18:51:32;;;;;;;20.42;8.77;;;7.80;86.80;;;;;;10479800;28;20151;-62
2022/03/05 18:56:34;;;;;;;22.00;9.60;;;7.90;86.90;;;;;;10470396;28;20040;-62
2022/03/05 19:01:34;;;;;;;19.95;8.13;;;7.90;87.00;;;;;;10478799;28;20048;-59
2022/03/05 19:06:35;;;;;;;18.45;7.75;;;7.90;87.10;;;;;;10481843;28;20024;-61
2022/03/05 19:11:36;;;;;;;20.33;9.02;;;7.90;87.30;;;;;;10481932;28;20028;-60
2022/03/05 19:16:37;;;;;;;16.52;7.57;;;7.90;87.40;;;;;;10483459;28;20367;-63
2022/03/05 19:21:38;;;;;;;18.38;8.55;;;7.90;87.70;;;;;;10479641;28;20021;-62
2022/03/05 19:26:38;;;;;;;18.05;8.45;;;8.00;87.80;;;;;;10480004;28;20025;-62
2022/03/05 19:31:39;;;;;;;21.48;9.35;;;8.00;88.00;;;;;;10475733;28;20036;-61
2022/03/05 19:36:40;;;;;;;15.25;7.28;;;8.00;88.20;;;;;;10477265;28;20060;-63
2022/03/05 19:41:41;;;;;;;17.83;7.97;;;8.00;88.40;;;;;;10484008;28;20074;-63
2022/03/05 19:46:42;;;;;;;18.55;8.10;;;8.00;88.60;;;;;;10478733;28;20044;-63
2022/03/05 19:51:42;;;;;;;18.17;7.57;;;8.00;88.70;;;;;;10485203;28;20071;-64
2022/03/05 19:56:43;;;;;;;21.27;8.05;;;8.00;88.90;;;;;;10485354;28;20123;-63
2022/03/05 20:01:47;;;;;;;19.67;8.27;;;8.00;88.90;;;;;;10465727;28;20028;-63
2022/03/05 20:06:48;;;;;;;25.27;8.57;;;7.90;88.90;;;;;;10458534;28;20042;-64
2022/03/05 20:11:49;;;;;;;19.08;8.05;;;7.90;89.00;;;;;;10480829;28;20021;-64
2022/03/05 20:16:50;;;;;;;15.82;7.18;;;8.00;89.10;;;;;;10480410;28;20512;-63
2022/03/05 20:21:50;;;;;;;17.70;8.15;;;7.90;89.00;;;;;;10479612;28;20035;-64
2022/03/05 20:26:51;;;;;;;21.58;8.55;;;7.90;89.20;;;;;;10478376;28;20032;-65
2022/03/05 20:31:52;;;;;;;17.33;8.00;;;7.90;89.20;;;;;;10483549;28;20521;-63
2022/03/05 20:36:53;;;;;;;18.67;8.15;;;7.90;89.20;;;;;;10479057;28;20163;-64
2022/03/05 20:41:54;;;;;;;17.10;7.72;;;7.90;89.30;;;;;;10472458;28;20438;-61
2022/03/05 20:46:54;;;;;;;16.13;7.60;;;7.90;89.30;;;;;;10477090;28;20329;-67
2022/03/05 20:51:55;;;;;;;17.85;7.97;;;7.90;89.40;;;;;;10474634;28;20499;-58
2022/03/05 20:56:56;;;;;;;18.00;7.57;;;7.80;89.40;;;;;;10479224;28;20040;-63
2022/03/05 21:01:57;;;;;;;17.05;7.45;;;7.80;89.40;;;;;;10479315;28;20032;-63
2022/03/05 21:06:58;;;;;;;15.93;7.65;;;7.80;89.40;;;;;;10474135;28;20029;-67
2022/03/05 21:11:58;;;;;;;13.85;7.00;;;7.80;89.50;;;;;;10479091;28;20071;-62
2022/03/05 21:17:01;;;;;;;15.73;6.93;;;7.80;89.50;;;;;;10452412;28;20372;-64
2022/03/05 21:22:01;;;;;;;16.95;6.85;;;7.70;89.50;;;;;;10482160;28;20044;-63
2022/03/05 21:27:02;;;;;;;16.30;7.15;;;7.70;89.50;;;;;;10480362;28;20032;-65
2022/03/05 21:32:04;;;;;;;15.35;7.20;;;7.70;90.00;;;;;;10473332;28;20039;-64
2022/03/05 21:37:06;;;;;;;15.48;6.90;;;7.70;89.60;;;;;;10478254;28;20048;-63
2022/03/05 21:42:07;;;;;;;11.57;6.18;;;7.60;90.00;;;;;;10480431;28;21053;-62
2022/03/05 21:47:07;;;;;;;15.35;6.55;;;7.60;89.60;;;;;;10481133;28;20043;-60
2022/03/05 21:52:08;;;;;;;15.55;6.70;;;7.60;89.50;;;;;;10474724;28;20024;-63
2022/03/05 21:57:09;;;;;;;16.70;6.63;;;7.50;89.40;;;;;;10478302;28;20033;-61
2022/03/05 22:02:09;;;;;;;15.60;6.97;;;7.50;89.40;;;;;;10482053;28;20102;-60
2022/03/05 22:07:10;;;;;;;14.00;6.18;;;7.50;89.40;;;;;;10481853;28;20029;-60
2022/03/05 22:12:12;;;;;;;13.80;6.72;;;7.50;89.90;;;;;;10486380;28;20045;-63
2022/03/05 22:17:13;;;;;;;13.70;6.72;;;7.40;89.30;;;;;;10488935;28;20448;-59
2022/03/05 22:22:14;;;;;;;14.57;7.22;;;7.40;89.20;;;;;;10488631;28;20032;-61
2022/03/05 22:27:15;;;;;;;13.40;6.63;;;7.40;89.20;;;;;;10488979;28;20024;-61
2022/03/05 22:32:15;;;;;;;13.88;6.45;;;7.40;89.20;;;;;;10488823;28;20119;-60
2022/03/05 22:37:16;;;;;;;13.27;6.28;;;7.30;89.10;;;;;;10487214;28;20094;-59
2022/03/05 22:42:17;;;;;;;14.00;6.18;;;7.30;89.10;;;;;;10470255;28;20043;-59
2022/03/05 22:47:18;;;;;;;14.68;5.90;;;7.30;89.00;;;;;;10483133;28;20525;-64
2022/03/05 22:52:20;;;;;;;11.50;5.85;;;7.30;89.00;;;;;;10479604;28;20028;-60
2022/03/05 22:57:20;;;;;;;12.48;5.78;;;7.30;89.00;;;;;;10484954;28;20032;-63
2022/03/05 23:13:00;;;;;;;11.27;5.90;;;7.20;88.80;;;;;;10483033;28;20032;-60
2022/03/05 23:18:01;;;;;;;12.68;5.85;;;7.70;89.10;;;;;;10480557;28;20025;-65
2022/03/05 23:23:02;;;;;;;11.45;5.97;;;7.10;88.70;;;;;;10473967;28;20460;-59
2022/03/05 23:28:03;;;;;;;12.25;5.28;;;7.30;88.80;;;;;;10464613;28;20028;-65
2022/03/05 23:33:03;;;;;;;13.18;5.75;;;7.10;88.70;;;;;;10484158;28;20049;-62
2022/03/05 23:38:04;;;;;;;10.70;5.10;;;7.10;88.70;;;;;;10483023;28;20067;-65
2022/03/05 23:43:05;;;;;;;9.30;4.97;;;7.00;88.70;;;;;;10488854;28;20428;-61
2022/03/05 23:48:06;;;;;;;16.33;6.15;;;7.00;88.60;;;;;;10483297;28;20060;-64
2022/03/05 23:53:07;;;;;;;11.73;5.82;;;7.00;88.60;;;;;;10480719;28;20132;-64
2022/03/05 23:58:08;;;;;;;12.45;5.30;;;7.00;88.60;;;;;;10484626;28;20029;-65
